Time;durP1;ratioP1;P1;durP2;ratioP2;P2;SDS_P1;SDS_P2;PMS_P1;PMS_P2;Temp;Humidity;BMP_temperature;BMP_pressure;BME280_temperature;BME280_humidity;BME280_pressure;Samples;Min_cycle;Max_cycle;Signal;HPM_P1;HPM_P2
2022/04/02 00:00:16;;;;;;;;;19.75;19.25;;;;;5.23;49.37;100914.16;4975821;28;45463;-63
2022/04/02 00:02:41;;;;;;;;;18.75;15.00;;;;;5.21;48.99;100900.28;4977361;28;45340;-63
2022/04/02 00:05:07;;;;;;;;;20.75;18.25;;;;;5.21;49.14;100914.16;4972941;28;45579;-64
2022/04/02 00:07:32;;;;;;;;;21.00;14.25;;;;;5.22;48.85;100909.84;4962485;28;45324;-63
2022/04/02 00:09:58;;;;;;;;;12.50;11.50;;;;;5.23;49.04;100913.31;4968115;28;46046;-64
2022/04/02 00:12:23;;;;;;;;;16.75;16.00;;;;;5.23;49.02;100910.69;4957331;28;45844;-63
2022/04/02 00:14:48;;;;;;;;;15.25;15.25;;;;;5.19;49.30;100904.56;4958878;28;46595;-63
2022/04/02 00:17:14;;;;;;;;;17.75;16.25;;;;;5.22;49.08;100912.44;4957580;28;45520;-63
2022/04/02 00:19:39;;;;;;;;;18.25;14.25;;;;;5.21;49.14;100911.56;4958334;28;45579;-63
2022/04/02 00:22:04;;;;;;;;;19.00;16.25;;;;;5.21;49.18;100905.47;4958707;28;45323;-63
2022/04/02 00:24:30;;;;;;;;;16.50;14.50;;;;;5.18;48.98;100908.94;4980502;28;45398;-63
2022/04/02 00:26:55;;;;;;;;;17.75;16.75;;;;;5.16;48.89;100908.03;4987188;28;45382;-63
2022/04/02 00:29:21;;;;;;;;;19.00;15.25;;;;;5.17;49.15;100915.00;4962301;28;46418;-63
2022/04/02 00:31:46;;;;;;;;;15.25;14.25;;;;;5.16;49.06;100908.03;4958446;28;45335;-63
2022/04/02 00:34:12;;;;;;;;;15.25;15.25;;;;;5.10;49.16;100913.16;4958862;28;45467;-63
2022/04/02 00:36:38;;;;;;;;;19.25;18.00;;;;;5.11;49.12;100907.09;4958433;28;45496;-63
2022/04/02 00:39:07;;;;;;;;;15.75;14.25;;;;;5.07;48.94;100910.53;4957553;28;46171;-63
2022/04/02 00:41:33;;;;;;;;;15.25;15.25;;;;;5.07;48.75;100912.25;4958515;28;45213;-63
2022/04/02 00:44:00;;;;;;;;;14.50;14.50;;;;;5.04;48.83;100900.06;4958665;28;45284;-63
2022/04/02 00:46:26;;;;;;;;;15.25;12.50;;;;;5.03;48.72;100908.75;4958143;28;45485;-63
2022/04/02 00:48:51;;;;;;;;;14.25;13.25;;;;;5.00;48.72;100903.50;4958431;28;46995;-63
2022/04/02 00:51:18;;;;;;;;;12.50;12.50;;;;;4.98;48.62;100905.22;4958424;28;45277;-63
2022/04/02 00:53:47;;;;;;;;;13.75;11.00;;;;;4.97;48.84;100912.16;4958726;28;45400;-64
2022/04/02 00:56:14;;;;;;;;;14.75;9.00;;;;;4.94;48.64;100919.06;4961677;28;45528;-63
2022/04/02 00:58:39;;;;;;;;;12.50;9.25;;;;;4.92;49.05;100910.34;4967783;28;45336;-63
2022/04/02 01:01:06;;;;;;;;;15.25;13.25;;;;;4.90;48.46;100912.06;4958019;28;45213;-63
2022/04/02 01:03:32;;;;;;;;;12.00;10.00;;;;;4.88;48.75;100907.72;4969603;28;45477;-63
2022/04/02 01:05:58;;;;;;;;;14.00;10.00;;;;;4.78;48.84;100891.94;4960527;28;45322;-63
2022/04/02 01:08:23;;;;;;;;;11.00;9.25;;;;;4.84;48.56;100907.66;4958136;28;45293;-63
2022/04/02 01:10:48;;;;;;;;;11.00;9.25;;;;;4.83;48.60;100903.28;4957900;28;45363;-63
2022/04/02 01:13:16;;;;;;;;;9.75;9.50;;;;;4.81;48.52;100900.69;4957195;28;45511;-63
2022/04/02 01:15:41;;;;;;;;;9.50;8.25;;;;;4.79;48.78;100897.22;4956531;28;45348;-63
2022/04/02 01:18:07;;;;;;;;;8.25;8.00;;;;;4.78;48.21;100897.16;4958109;28;45333;-64
2022/04/02 01:20:33;;;;;;;;;11.25;8.50;;;;;4.75;48.57;100899.75;4957906;28;45275;-63
2022/04/02 01:22:59;;;;;;;;;4.00;4.00;;;;;4.74;48.29;100900.59;4958390;28;45202;-63
2022/04/02 01:25:31;;;;;;;;;7.25;6.00;;;;;4.70;48.68;100889.25;4979322;28;45317;-63
2022/04/02 01:28:00;;;;;;;;;13.00;7.25;;;;;4.68;48.52;100898.81;4986733;28;47164;-63
2022/04/02 01:30:27;;;;;;;;;13.75;8.00;;;;;4.65;48.22;100907.41;4956456;28;45383;-63
2022/04/02 01:32:53;;;;;;;;;8.75;8.00;;;;;4.61;48.50;100895.22;4957760;28;45470;-63
2022/04/02 01:35:21;;;;;;;;;9.75;8.00;;;;;4.60;48.26;100898.69;4957689;28;45525;-63
2022/04/02 01:37:47;;;;;;;;;8.25;8.25;;;;;4.61;48.21;100899.56;4957758;28;46713;-65
2022/04/02 01:40:12;;;;;;;;;9.75;6.50;;;;;4.58;48.34;100904.72;4957643;28;45518;-63
2022/04/02 01:42:38;;;;;;;;;9.00;7.75;;;;;4.55;48.21;100908.16;4957737;28;45284;-67
2022/04/02 01:45:04;;;;;;;;;4.00;4.00;;;;;4.52;47.99;100902.94;4972825;28;45240;-65
2022/04/02 01:47:29;;;;;;;;;7.50;7.50;;;;;4.48;48.35;100909.81;4957473;28;45511;-62
2022/04/02 01:49:55;;;;;;;;;6.75;6.75;;;;;4.49;48.50;100918.47;4957967;28;45260;-61
2022/04/02 01:52:20;;;;;;;;;6.25;6.25;;;;;4.48;48.16;100916.75;4960898;28;45880;-62
2022/04/02 01:54:47;;;;;;;;;8.00;5.75;;;;;4.43;48.34;100916.69;4960533;28;45334;-61
2022/04/02 01:57:13;;;;;;;;;7.00;7.00;;;;;4.42;48.27;100914.94;4972196;28;45319;-62
2022/04/02 01:59:40;;;;;;;;;6.25;4.00;;;;;4.39;47.96;100920.13;4960176;28;45301;-63
2022/04/02 02:02:07;;;;;;;;;6.25;6.25;;;;;4.39;48.27;100920.13;4961162;28;45268;-63
2022/04/02 02:04:33;;;;;;;;;6.00;4.75;;;;;4.33;47.88;100918.28;4973480;28;45489;-64
2022/04/02 02:06:59;;;;;;;;;4.75;4.75;;;;;4.35;48.01;100939.13;4959403;28;48269;-64
2022/04/02 02:09:25;;;;;;;;;2.00;2.00;;;;;4.29;47.95;100926.91;4960044;28;45343;-63
2022/04/02 02:11:50;;;;;;;;;7.00;7.00;;;;;4.21;47.60;100916.38;4959197;28;45387;-64
2022/04/02 02:14:15;;;;;;;;;9.50;5.75;;;;;4.28;48.02;100935.56;4958907;27;45634;-63
2022/04/02 02:16:41;;;;;;;;;6.00;3.25;;;;;4.27;48.29;100936.41;4960126;28;45250;-63
2022/04/02 02:19:06;;;;;;;;;6.00;4.00;;;;;4.25;48.08;100926.81;4960115;28;45351;-63
2022/04/02 02:21:32;;;;;;;;;6.00;5.75;;;;;4.23;48.32;100935.47;4959114;28;45340;-63
2022/04/02 02:23:58;;;;;;;;;9.50;6.00;;;;;4.18;47.80;100921.53;4958680;28;45447;-63
2022/04/02 02:26:24;;;;;;;;;4.00;4.00;;;;;4.19;47.83;100930.22;4992591;28;47140;-63
2022/04/02 02:28:49;;;;;;;;;6.00;5.00;;;;;4.17;47.86;100922.38;4966540;28;45362;-63
2022/04/02 02:31:15;;;;;;;;;7.00;6.25;;;;;4.16;47.92;100930.16;4966996;28;45745;-63
2022/04/02 02:36:25;;;;;;;;;6.75;5.00;;;;;4.12;47.64;100926.63;4981291;28;45737;-64
2022/04/02 02:38:52;;;;;;;;;6.00;6.00;;;;;4.11;47.77;100932.69;4960127;28;45269;-63
2022/04/02 02:41:17;;;;;;;;;3.75;3.25;;;;;4.08;47.74;100930.06;4960136;28;45305;-63
2022/04/02 02:43:43;;;;;;;;;6.25;4.00;;;;;4.07;48.16;100933.50;4960013;28;45243;-63
2022/04/02 02:46:08;;;;;;;;;11.50;6.00;;;;;4.05;48.16;100941.28;4959658;28;46060;-63
2022/04/02 02:48:34;;;;;;;;;8.25;3.50;;;;;4.02;47.88;100940.34;4967982;28;45261;-64
2022/04/02 02:51:00;;;;;;;;;7.00;5.00;;;;;4.03;47.85;100945.56;4977869;28;45328;-64
2022/04/02 02:53:25;;;;;;;;;5.50;5.50;;;;;4.02;47.70;100950.75;4970250;28;45384;-63
2022/04/02 02:55:51;;;;;;;;;5.00;4.00;;;;;4.01;47.91;100943.81;4958802;28;48354;-64
2022/04/02 02:58:16;;;;;;;;;2.50;2.50;;;;;4.00;47.99;100939.44;4972245;28;45332;-63
2022/04/02 03:00:43;;;;;;;;;4.50;4.50;;;;;3.97;48.04;100944.63;4959621;28;45249;-64
2022/04/02 03:03:09;;;;;;;;;9.25;7.25;;;;;3.97;47.87;100952.41;4967335;28;45451;-65
2022/04/02 03:05:35;;;;;;;;;7.00;7.00;;;;;3.94;47.55;100961.03;4965252;28;46103;-64
2022/04/02 03:08:02;;;;;;;;;6.75;6.75;;;;;3.91;47.99;100947.97;4959731;28;45241;-63
2022/04/02 03:10:28;;;;;;;;;7.25;7.00;;;;;3.90;47.62;100947.09;4959359;28;45415;-64
2022/04/02 03:12:57;;;;;;;;;8.00;6.50;;;;;3.89;47.80;100957.50;4959614;28;45462;-64
2022/04/02 03:15:23;;;;;;;;;5.50;5.50;;;;;3.87;47.96;100961.78;4959437;28;45767;-64
2022/04/02 03:17:49;;;;;;;;;9.00;6.25;;;;;3.86;47.65;100962.63;4959516;28;45377;-63
2022/04/02 03:20:17;;;;;;;;;8.00;8.00;;;;;3.84;47.87;100961.75;4959698;28;45510;-65
2022/04/02 03:22:45;;;;;;;;;6.25;5.50;;;;;3.84;47.46;100969.53;4959489;28;45286;-63
2022/04/02 03:25:20;;;;;;;;;7.75;6.75;;;;;3.80;48.01;100959.91;4980905;28;47163;-64
2022/04/02 03:27:46;;;;;;;;;11.00;9.00;;;;;3.79;47.79;100969.47;4968270;28;45343;-63
2022/04/02 03:30:15;;;;;;;;;7.75;6.75;;;;;3.78;47.93;100967.69;4971024;28;45399;-63
2022/04/02 03:32:41;;;;;;;;;7.50;7.50;;;;;3.76;47.72;100972.00;4959203;28;45403;-63
2022/04/02 03:35:08;;;;;;;;;7.50;6.75;;;;;3.73;47.93;100969.34;4957841;28;48390;-64
2022/04/02 03:37:38;;;;;;;;;8.25;7.50;;;;;3.69;47.89;100963.22;4981976;28;45324;-63
2022/04/02 03:40:10;;;;;;;;;8.25;8.25;;;;;3.72;47.77;100963.28;4972671;28;45359;-64
2022/04/02 03:42:36;;;;;;;;;8.00;7.00;;;;;3.70;47.90;100958.91;4954148;28;45517;-64
2022/04/02 03:45:04;;;;;;;;;8.00;8.00;;;;;3.67;47.63;100970.13;4974021;28;46193;-63
2022/04/02 03:47:30;;;;;;;;;5.50;5.50;;;;;3.67;47.68;100974.44;4958810;28;45291;-64
2022/04/02 03:49:55;;;;;;;;;10.00;8.75;;;;;3.65;47.33;100966.63;4957926;28;45397;-64
2022/04/02 03:52:21;;;;;;;;;8.50;7.25;;;;;3.65;47.56;100977.00;4958906;28;45467;-64
2022/04/02 03:54:46;;;;;;;;;9.50;7.50;;;;;3.63;47.81;100967.44;4958978;28;45321;-64
2022/04/02 03:57:14;;;;;;;;;9.25;9.25;;;;;3.62;47.77;100983.88;4970510;28;45194;-63
2022/04/02 03:59:43;;;;;;;;;8.00;8.00;;;;;3.58;47.83;100976.03;4960462;28;45310;-63
2022/04/02 04:02:10;;;;;;;;;15.50;8.75;;;;;3.58;48.04;100977.75;4959543;28;45446;-63
2022/04/02 04:04:36;;;;;;;;;9.25;7.00;;;;;3.57;47.70;100973.38;4971822;28;46147;-64
2022/04/02 04:07:02;;;;;;;;;7.00;7.00;;;;;3.55;47.89;100975.09;4959075;28;45227;-63
2022/04/02 04:09:28;;;;;;;;;8.50;8.00;;;;;3.54;47.75;100978.53;4958663;28;45397;-63
2022/04/02 04:11:54;;;;;;;;;9.25;7.25;;;;;3.54;47.62;100981.13;4958834;28;45379;-64
2022/04/02 04:14:20;;;;;;;;;9.75;8.25;;;;;3.49;47.88;100975.84;4957414;28;46048;-64
2022/04/02 04:16:46;;;;;;;;;10.75;9.25;;;;;3.50;47.56;100982.81;4958725;28;45540;-63
2022/04/02 04:19:11;;;;;;;;;7.50;7.50;;;;;3.49;47.35;100991.44;4990882;28;45236;-63
2022/04/02 04:21:37;;;;;;;;;13.50;8.25;;;;;3.48;47.28;100991.41;4966070;28;45574;-63
2022/04/02 04:24:07;;;;;;;;;8.50;7.00;;;;;3.46;47.57;100993.09;4958486;28;45350;-64
2022/04/02 04:26:33;;;;;;;;;11.50;8.00;;;;;3.46;47.89;101000.91;4995471;28;45299;-63
2022/04/02 04:28:58;;;;;;;;;13.00;10.50;;;;;3.46;47.70;101008.69;4965201;28;45339;-63
2022/04/02 04:31:24;;;;;;;;;14.50;13.25;;;;;3.42;47.85;101006.03;4964986;28;45198;-63
2022/04/02 04:33:50;;;;;;;;;8.00;8.00;;;;;3.41;47.57;101006.03;4958649;28;46458;-63
2022/04/02 04:36:18;;;;;;;;;10.00;10.00;;;;;3.40;48.06;101014.66;4958696;28;45560;-63
2022/04/02 04:38:44;;;;;;;;;8.00;8.00;;;;;3.38;47.86;101012.03;4959058;28;45423;-63
2022/04/02 04:41:09;;;;;;;;;17.25;16.25;;;;;3.39;48.03;101011.16;4958400;28;45328;-63
2022/04/02 04:43:35;;;;;;;;;9.75;9.00;;;;;3.36;48.06;101013.72;4958798;28;46109;-63
2022/04/02 04:46:02;;;;;;;;;10.50;9.50;;;;;3.36;47.75;101018.91;4958264;28;45325;-63
2022/04/02 04:48:28;;;;;;;;;7.25;5.00;;;;;3.36;47.86;101023.25;4958921;28;45380;-64
2022/04/02 04:50:53;;;;;;;;;8.25;8.25;;;;;3.35;47.89;101024.09;4958450;28;45249;-63
2022/04/02 04:53:19;;;;;;;;;7.75;6.00;;;;;3.34;48.07;101017.13;4957299;28;45922;-63
2022/04/02 04:55:44;;;;;;;;;7.00;6.00;;;;;3.33;48.08;101031.81;4958233;28;45171;-63
2022/04/02 04:58:09;;;;;;;;;7.00;7.00;;;;;3.31;47.61;101030.94;4971545;28;45210;-64
2022/04/02 05:00:35;;;;;;;;;7.00;7.00;;;;;3.31;48.20;101032.63;4958170;28;45477;-64
2022/04/02 05:03:00;;;;;;;;;11.75;8.00;;;;;3.30;48.16;101036.97;4965364;28;47232;-63
2022/04/02 05:05:28;;;;;;;;;9.00;8.00;;;;;3.28;47.48;101036.06;4965182;28;45421;-63
2022/04/02 05:07:54;;;;;;;;;7.25;7.00;;;;;3.28;47.70;101038.66;4963892;28;45280;-63
2022/04/02 05:10:20;;;;;;;;;12.00;11.00;;;;;3.27;48.04;101043.81;4964096;28;45319;-64
2022/04/02 05:12:45;;;;;;;;;10.00;8.75;;;;;3.25;48.01;101039.47;4958310;28;46132;-63
2022/04/02 05:15:11;;;;;;;;;11.75;8.25;;;;;3.25;47.75;101044.66;4956781;28;45244;-64
2022/04/02 05:17:37;;;;;;;;;8.00;8.00;;;;;3.24;48.09;101042.91;4958324;28;45224;-64
2022/04/02 05:20:04;;;;;;;;;11.50;8.00;;;;;3.22;47.90;101044.63;4958061;28;45535;-65
2022/04/02 05:22:29;;;;;;;;;12.75;10.75;;;;;3.19;48.19;101044.53;4958144;28;46050;-65
2022/04/02 05:24:54;;;;;;;;;9.25;7.75;;;;;3.21;47.63;101047.19;4976025;28;45272;-64
2022/04/02 05:27:21;;;;;;;;;6.25;6.25;;;;;3.18;47.81;101050.59;4976974;28;45206;-64
2022/04/02 05:29:46;;;;;;;;;8.25;8.25;;;;;3.15;48.11;101049.66;4977153;28;45533;-64
2022/04/02 05:32:12;;;;;;;;;16.50;12.25;;;;;3.17;47.87;101061.81;4974491;28;46151;-65
2022/04/02 05:34:37;;;;;;;;;11.00;8.00;;;;;3.16;47.71;101049.69;4982910;28;45323;-64
2022/04/02 05:37:03;;;;;;;;;8.00;8.00;;;;;3.15;47.78;101060.91;4964428;28;45368;-65
2022/04/02 05:39:28;;;;;;;;;12.00;12.00;;;;;3.16;48.18;101073.06;4962836;28;45528;-64
2022/04/02 05:41:53;;;;;;;;;6.75;6.75;;;;;3.15;47.77;101073.88;4964382;28;45467;-65
2022/04/02 05:44:19;;;;;;;;;9.50;8.00;;;;;3.14;47.94;101064.34;4964075;28;45382;-65
2022/04/02 05:46:44;;;;;;;;;9.75;9.75;;;;;3.15;47.87;101075.63;4964315;28;45481;-64
2022/04/02 05:49:09;;;;;;;;;11.50;9.25;;;;;3.13;47.83;101075.56;4964048;28;45304;-64
2022/04/02 05:51:35;;;;;;;;;8.25;8.25;;;;;3.14;48.22;101079.91;4962849;28;47130;-64
2022/04/02 05:54:00;;;;;;;;;10.25;9.00;;;;;3.14;47.58;101072.13;4991117;28;45307;-65
2022/04/02 05:56:27;;;;;;;;;11.00;7.50;;;;;3.14;47.52;101077.31;4963772;28;45467;-64
2022/04/02 05:58:53;;;;;;;;;11.75;8.00;;;;;3.15;47.97;101093.81;4964187;28;45222;-65
2022/04/02 06:01:19;;;;;;;;;7.00;7.00;;;;;3.11;48.15;101081.56;4995483;28;45185;-64
2022/04/02 06:03:45;;;;;;;;;11.25;11.25;;;;;3.15;47.97;101094.66;4978836;28;45260;-65
2022/04/02 06:06:10;;;;;;;;;10.50;7.75;;;;;3.15;48.39;101096.41;4964889;28;45372;-64
2022/04/02 06:08:36;;;;;;;;;14.25;11.00;;;;;3.12;47.89;101094.63;4962657;28;45528;-65
2022/04/02 06:11:01;;;;;;;;;11.25;10.00;;;;;3.12;48.17;101086.81;4963349;28;45327;-64
2022/04/02 06:13:27;;;;;;;;;12.75;11.00;;;;;3.14;48.04;101098.09;4963549;28;45260;-66
2022/04/02 06:15:53;;;;;;;;;9.25;7.50;;;;;3.16;48.10;101108.56;4962167;28;45263;-63
2022/04/02 06:18:19;;;;;;;;;7.50;7.00;;;;;3.13;48.14;101106.72;4963673;28;45562;-62
2022/04/02 06:20:50;;;;;;;;;8.00;7.00;;;;;3.17;47.79;101099.88;4963434;28;45947;-62
2022/04/02 06:23:16;;;;;;;;;13.00;11.25;;;;;3.18;48.19;101118.13;4963460;28;45299;-62
2022/04/02 06:25:41;;;;;;;;;11.25;7.25;;;;;3.18;48.06;101110.34;4991377;28;45422;-63
2022/04/02 06:28:07;;;;;;;;;12.50;8.50;;;;;3.22;47.76;101122.53;4969911;28;45347;-63
2022/04/02 06:30:32;;;;;;;;;11.00;7.50;;;;;3.23;48.19;101126.91;4968450;28;48351;-64
2022/04/02 06:33:00;;;;;;;;;9.50;9.25;;;;;3.24;47.75;101135.56;4969986;28;45440;-62
2022/04/02 06:35:26;;;;;;;;;10.00;10.00;;;;;3.25;47.64;101135.59;4970180;28;45327;-69
2022/04/02 06:37:53;;;;;;;;;6.75;6.75;;;;;3.28;48.37;101131.31;4965797;28;45458;-63
2022/04/02 06:40:19;;;;;;;;;8.00;8.00;;;;;3.29;48.05;101133.06;4959637;28;46090;-66
2022/04/02 06:42:44;;;;;;;;;8.25;6.00;;;;;3.30;47.96;101133.09;4958655;28;45254;-68
2022/04/02 06:45:10;;;;;;;;;9.00;7.25;;;;;3.29;48.12;101128.75;4960327;28;45263;-69
2022/04/02 06:47:36;;;;;;;;;12.25;8.75;;;;;3.35;48.09;101135.81;4959774;28;45458;-67
2022/04/02 06:50:04;;;;;;;;;10.75;8.75;;;;;3.38;48.19;101144.53;4959773;28;46033;-68
2022/04/02 06:52:30;;;;;;;;;12.75;8.00;;;;;3.38;48.13;101136.75;4959789;28;45343;-71
2022/04/02 06:54:56;;;;;;;;;7.25;7.25;;;;;3.40;48.22;101142.84;4959870;28;45481;-69
2022/04/02 06:57:23;;;;;;;;;8.00;7.25;;;;;3.45;48.02;101145.53;4972760;28;45232;-64
2022/04/02 06:59:49;;;;;;;;;11.00;11.00;;;;;3.49;47.92;101154.28;4979338;28;45390;-68
2022/04/02 07:02:16;;;;;;;;;8.25;7.25;;;;;3.51;47.96;101157.78;4968665;28;45366;-63
2022/04/02 07:04:42;;;;;;;;;9.75;7.25;;;;;3.52;47.91;101152.63;4974888;28;45291;-60
2022/04/02 07:07:08;;;;;;;;;9.50;8.25;;;;;3.56;47.98;101163.97;4965279;28;45472;-67
2022/04/02 07:09:34;;;;;;;;;9.75;8.75;;;;;3.58;47.88;101157.97;4959192;28;46434;-52
2022/04/02 07:12:00;;;;;;;;;10.25;6.00;;;;;3.62;47.97;101158.00;4959071;28;45291;-51
2022/04/02 07:14:26;;;;;;;;;7.50;5.25;;;;;3.65;47.69;101169.38;4959895;28;45511;-50
2022/04/02 07:16:51;;;;;;;;;7.25;7.25;;;;;3.68;48.18;101169.41;4959210;28;45375;-50
2022/04/02 07:19:20;;;;;;;;;10.00;8.00;;;;;3.72;48.12;101175.56;4959528;28;46046;-52
2022/04/02 07:21:46;;;;;;;;;10.50;9.50;;;;;3.74;47.97;101168.69;4960015;28;45423;-53
2022/04/02 07:24:13;;;;;;;;;10.75;8.00;;;;;3.79;48.34;101167.03;4959511;28;45410;-47
2022/04/02 07:26:39;;;;;;;;;7.75;7.75;;;;;3.83;47.86;101168.84;4976809;28;45273;-46
2022/04/02 07:29:07;;;;;;;;;8.25;8.25;;;;;3.87;48.15;101180.19;4978293;28;45441;-49
2022/04/02 07:31:32;;;;;;;;;9.50;6.25;;;;;3.91;48.30;101174.19;4972313;28;45526;-46
2022/04/02 07:33:59;;;;;;;;;8.00;8.00;;;;;3.94;48.20;101183.78;4970523;28;45211;-55
2022/04/02 07:36:32;;;;;;;;;9.00;8.00;;;;;3.96;48.39;101183.00;4959099;28;45317;-63
2022/04/02 07:39:14;;;;;;;;;12.25;8.25;;;;;4.04;48.10;101185.75;4957815;28;45392;-58
2022/04/02 07:41:51;;;;;;;;;10.50;9.00;;;;;4.10;47.82;101191.06;4958943;28;45362;-58
2022/04/02 07:44:21;;;;;;;;;12.50;9.25;;;;;4.15;48.10;101191.16;4958997;28;45301;-56
2022/04/02 07:46:47;;;;;;;;;11.25;9.75;;;;;4.20;47.75;101194.72;4957548;28;45452;-56
2022/04/02 07:49:18;;;;;;;;;11.50;9.00;;;;;4.26;48.09;101191.38;4957515;28;46089;-57
2022/04/02 07:51:49;;;;;;;;;10.25;7.00;;;;;4.31;48.21;101198.41;4959032;28;45295;-55
2022/04/02 07:54:17;;;;;;;;;8.00;7.75;;;;;4.37;47.81;101192.44;4958272;28;45377;-59
2022/04/02 07:56:46;;;;;;;;;9.75;9.00;;;;;4.42;48.40;101189.94;4966612;28;45228;-59
2022/04/02 07:59:19;;;;;;;;;6.50;4.25;;;;;4.49;48.17;101199.59;4963767;28;45439;-67
2022/04/02 08:01:46;;;;;;;;;12.25;8.75;;;;;4.54;48.17;101198.84;4957904;28;45707;-65
2022/04/02 08:04:12;;;;;;;;;9.75;9.00;;;;;4.61;48.21;101198.94;4957813;28;45474;-60
2022/04/02 08:06:39;;;;;;;;;9.00;6.75;;;;;4.67;47.70;101204.25;4969081;28;45346;-58
2022/04/02 08:09:07;;;;;;;;;8.25;6.75;;;;;4.71;47.95;101201.72;4958538;28;46589;-58
2022/04/02 08:11:37;;;;;;;;;8.25;8.25;;;;;4.78;47.80;101191.41;4958485;28;45260;-57
2022/04/02 08:14:02;;;;;;;;;9.25;8.25;;;;;4.85;47.72;101203.69;4955393;28;45559;-57
2022/04/02 08:16:28;;;;;;;;;8.75;8.50;;;;;4.91;47.71;101201.19;4956756;28;45575;-57
2022/04/02 08:18:56;;;;;;;;;9.75;8.75;;;;;4.98;47.78;101197.84;4958201;28;45452;-56
2022/04/02 08:21:22;;;;;;;;;3.75;3.75;;;;;5.07;47.83;101207.53;4958832;28;45501;-57
2022/04/02 08:23:48;;;;;;;;;10.00;8.50;;;;;5.14;47.78;101211.97;4958576;28;45282;-58
2022/04/02 08:26:25;;;;;;;;;5.75;5.25;;;;;5.21;47.45;101208.59;4990369;28;45469;-57
2022/04/02 08:29:03;;;;;;;;;8.00;7.00;;;;;5.29;47.50;101208.72;4963773;28;45377;-60
2022/04/02 08:31:49;;;;;;;;;5.50;5.50;;;;;5.38;47.48;101218.41;4972905;28;45410;-58
2022/04/02 08:34:35;;;;;;;;;7.00;7.00;;;;;5.47;47.41;101213.34;4967987;28;45482;-59
2022/04/02 08:37:12;;;;;;;;;3.75;3.75;;;;;5.54;47.36;101214.31;4958284;28;45418;-59
2022/04/02 08:39:55;;;;;;;;;4.75;4.75;;;;;5.64;47.31;101215.31;4958265;28;46380;-59
2022/04/02 08:42:40;;;;;;;;;7.25;6.50;;;;;5.68;47.17;101212.75;4958268;28;45331;-59
2022/04/02 08:45:14;;;;;;;;;4.50;4.50;;;;;5.75;47.02;101203.28;4958338;28;45244;-58
2022/04/02 08:47:58;;;;;;;;;6.25;5.00;;;;;5.82;46.62;101215.56;4958157;28;45598;-58
2022/04/02 08:50:34;;;;;;;;;8.75;4.25;;;;;5.89;46.78;101219.13;4958121;28;46393;-59
2022/04/02 08:53:08;;;;;;;;;4.25;4.25;;;;;5.96;46.68;101223.56;4973553;28;45245;-70
2022/04/02 08:55:34;;;;;;;;;3.25;3.25;;;;;6.04;46.11;101225.41;4958156;28;45316;-62
2022/04/02 08:58:20;;;;;;;;;2.75;2.00;;;;;6.11;46.46;101217.69;4980019;28;45486;-64
2022/04/02 09:01:07;;;;;;;;;4.75;4.75;;;;;6.17;46.60;101222.09;4981376;28;45449;-65
2022/04/02 09:04:00;;;;;;;;;4.00;3.50;;;;;6.29;46.62;101230.06;4972609;28;45522;-64
2022/04/02 09:06:47;;;;;;;;;7.25;6.50;;;;;6.38;46.38;101229.28;4958230;28;45466;-64
2022/04/02 09:09:26;;;;;;;;;5.00;5.00;;;;;6.46;46.32;101238.06;4957670;28;45410;-67
2022/04/02 09:12:27;;;;;;;;;6.75;6.25;;;;;6.53;46.31;101230.31;4956443;28;47218;-65
2022/04/02 09:15:11;;;;;;;;;7.25;7.25;;;;;6.60;46.13;101240.84;4958050;28;45540;-63
2022/04/02 09:17:59;;;;;;;;;8.50;7.25;;;;;6.66;45.99;101240.88;4957837;28;45281;-61
2022/04/02 09:20:46;;;;;;;;;5.00;5.00;;;;;6.75;46.13;101245.31;4972171;28;45324;-65
2022/04/02 09:23:42;;;;;;;;;9.00;9.00;;;;;6.83;45.84;101229.75;4957780;28;46179;-63
2022/04/02 09:26:39;;;;;;;;;8.00;8.00;;;;;6.92;45.99;101235.03;4998867;28;45509;-66
2022/04/02 09:29:15;;;;;;;;;7.50;5.50;;;;;7.06;46.17;101222.09;4969479;28;45526;-68
2022/04/02 09:32:14;;;;;;;;;6.50;5.00;;;;;7.15;45.85;101232.59;4957311;28;45385;-58
2022/04/02 09:34:55;;;;;;;;;14.75;8.25;;;;;7.26;45.82;101244.91;4957729;28;45327;-54
2022/04/02 09:38:15;;;;;;;;;6.50;5.75;;;;;7.36;45.43;101238.00;4974555;28;45332;-50
2022/04/02 09:40:48;;;;;;;;;8.00;8.00;;;;;7.47;45.45;101234.59;4978593;28;45322;-49
2022/04/02 09:43:17;;;;;;;;;5.00;5.00;;;;;7.60;45.59;101234.69;4957491;28;45358;-54
2022/04/02 09:46:22;;;;;;;;;8.50;8.50;;;;;7.73;45.51;101241.72;4957099;28;45523;-51
2022/04/02 09:49:06;;;;;;;;;8.50;8.50;;;;;7.91;45.21;101240.06;4993385;28;45514;-59
2022/04/02 09:51:34;;;;;;;;;11.50;7.25;;;;;8.06;45.36;101234.91;4962650;28;45355;-58
2022/04/02 09:54:25;;;;;;;;;6.00;6.00;;;;;8.24;45.22;101241.09;4976082;28;46076;-58
2022/04/02 09:56:57;;;;;;;;;7.00;5.75;;;;;8.41;45.36;101231.50;4957385;28;45417;-58
2022/04/02 10:00:05;;;;;;;;;5.00;5.00;;;;;8.66;45.38;101249.94;4955608;28;45291;-58
2022/04/02 10:03:04;;;;;;;;;5.75;5.75;;;;;8.95;45.49;101241.25;5010488;28;45593;-59
2022/04/02 10:06:02;;;;;;;;;6.25;6.25;;;;;9.27;45.46;101237.75;4982926;28;45472;-58
2022/04/02 10:08:38;;;;;;;;;8.75;7.75;;;;;9.58;45.34;101240.31;4957076;28;46145;-58
2022/04/02 10:11:06;;;;;;;;;6.00;6.00;;;;;9.84;45.18;101231.53;4967899;28;45411;-51
2022/04/02 10:13:34;;;;;;;;;5.25;4.00;;;;;10.06;44.85;101246.31;4986233;28;45590;-56
2022/04/02 10:16:00;;;;;;;;;8.50;6.75;;;;;10.18;44.51;101236.63;4959766;28;45352;-57
2022/04/02 10:18:26;;;;;;;;;8.00;8.00;;;;;10.27;44.33;101235.72;4960115;28;45265;-56
2022/04/02 10:20:53;;;;;;;;;6.75;5.50;;;;;10.31;44.07;101235.66;4959980;28;45177;-60
2022/04/02 10:23:30;;;;;;;;;4.50;4.50;;;;;10.32;42.96;101241.81;4958609;27;45336;-59
2022/04/02 10:26:02;;;;;;;;;6.50;5.25;;;;;10.35;42.40;101226.91;4991596;28;45457;-54
2022/04/02 10:28:30;;;;;;;;;6.50;5.00;;;;;10.37;42.84;101237.44;4966130;28;46144;-57
2022/04/02 10:30:57;;;;;;;;;4.00;4.00;;;;;10.37;42.42;101242.69;4970303;28;45252;-57
2022/04/02 10:33:29;;;;;;;;;25.50;20.50;;;;;10.42;42.41;101243.53;4959954;28;45492;-58
2022/04/02 10:35:55;;;;;;;;;48.50;40.00;;;;;10.46;42.55;101242.63;4958904;28;45329;-58
2022/04/02 10:38:38;;;;;;;;;26.25;21.00;;;;;10.55;42.22;101244.34;4959744;28;45463;-54
2022/04/02 10:41:18;;;;;;;;;17.00;15.25;;;;;10.63;42.10;101232.03;4959926;28;45358;-53
2022/04/02 10:44:24;;;;;;;;;33.25;27.00;;;;;10.78;42.02;101245.94;4960084;28;45378;-56
2022/04/02 10:46:57;;;;;;;;;21.00;18.75;;;;;10.96;42.26;101229.19;4950428;28;45582;-59
2022/04/02 10:49:34;;;;;;;;;19.25;18.25;;;;;11.19;42.51;101221.97;4953377;28;48447;-59
2022/04/02 10:52:02;;;;;;;;;17.75;17.75;;;;;11.45;42.09;101218.19;4977876;28;46109;-60
2022/04/02 10:54:29;;;;;;;;;11.75;11.00;;;;;11.74;42.09;101226.69;4962344;28;45351;-66
2022/04/02 10:56:55;;;;;;;;;11.75;11.50;;;;;12.10;42.20;101220.13;4968580;27;45262;-63
2022/04/02 10:59:21;;;;;;;;;9.50;9.00;;;;;12.44;42.46;101231.97;4959046;28;45513;-61
2022/04/02 11:01:54;;;;;;;;;7.25;7.25;;;;;12.80;42.39;101227.94;4960023;28;45415;-62
2022/04/02 11:04:32;;;;;;;;;6.00;5.00;;;;;13.22;42.12;101221.06;4975788;28;45391;-65
2022/04/02 11:06:59;;;;;;;;;5.00;5.00;;;;;13.55;42.39;101219.63;4965580;28;45439;-62
2022/04/02 11:09:25;;;;;;;;;7.00;5.75;;;;;13.89;41.65;101237.44;4959011;28;45430;-62
2022/04/02 11:11:52;;;;;;;;;5.00;4.25;;;;;14.21;42.25;101206.81;4959295;28;45347;-62
2022/04/02 11:14:24;;;;;;;;;4.75;4.75;;;;;14.57;41.86;101230.72;4958366;28;45293;-61
2022/04/02 11:16:51;;;;;;;;;5.75;4.00;;;;;14.94;41.75;101214.00;4958775;28;45388;-61
2022/04/02 11:22:14;;;;;;;;;4.50;4.25;;;;;15.76;40.90;101225.06;4959462;28;45341;-61
2022/04/02 11:25:05;;;;;;;;;9.00;9.00;;;;;16.15;40.96;101226.66;4967731;27;45340;-59
2022/04/02 11:27:36;;;;;;;;;6.00;5.00;;;;;16.45;41.08;101217.81;4959647;28;45391;-57
2022/04/02 11:30:08;;;;;;;;;7.50;5.25;;;;;16.70;40.60;101217.88;4959232;28;46613;-61
2022/04/02 11:32:37;;;;;;;;;6.00;5.00;;;;;16.85;40.33;101224.50;4961506;28;45220;-59
2022/04/02 11:35:07;;;;;;;;;5.00;4.00;;;;;16.98;40.23;101243.56;4960314;28;45394;-52
2022/04/02 11:37:43;;;;;;;;;6.75;5.75;;;;;17.14;39.78;101239.47;4959717;28;45443;-56
2022/04/02 11:40:14;;;;;;;;;3.50;3.50;;;;;17.34;39.45;101230.81;4959154;27;45324;-52
2022/04/02 11:42:46;;;;;;;;;6.00;4.50;;;;;17.58;39.24;101230.03;4971415;28;45366;-57
2022/04/02 11:45:20;;;;;;;;;4.00;4.00;;;;;17.79;39.28;101226.59;4969667;28;45473;-51